메인 페이지
METAR-TAF:

METAR-TAF

공항 :

바하왈푸르, 파키스탄

위도: 29-20-53N, 경도: 71-43-04E, 고도: 119m

METAR: 누락

시각: 17:20 (12:20 UTC)

예보

예보는 2 시간 35분 전, 09:45시(UTC)에 발표되었습니다.
예보 대상 시간: 13일 12시부터 14일 06시까지 (UTC)
남서14kt
시정: 4000m
고도 4000ft 상공 구름 보통
연기

TAF: OPBW 130945Z 1312/1406 23014KT 4000 FU SCT040 TN32/1401Z

4,000개 이상의 공항 관측 자료 및 예보 (METAR 및 TAF 보고).

지도상에서 검색 가능한 기상관측소가 노란 점과 빨간 점으로 표시되어 있습니다.

기상관측소 명을 보려면 표시 위로 마우스를 이동하세요.

날씨 관측과 예보를 보려면 클릭하세요.

지도 변경 : 확대하려면 엑스 표시가 있는 녹색 버튼, 축소하려면 빼기 표시가 있는 녹색 버튼, 다음 페이지의 지도를 보려면 녹색 화살표를 클릭하세요.


METAR-TAF: